Fort Gates, Texas
Current Conditions -  °F | °C
As of 4:15 PM on Sunday 25 Jan 2015 (Local Time) from KGOP Reporting Station
Clear Clear  
Wind Chill: 66°   Ceiling: Unl
Heat Index: 66°   Visibility: 10mi
Dew Point: 27°   Wind: 15mph
Humidity: 23%   Direction: 340°NNW
Pressure: 30.13"   Gusts: NA
Location:  31.392°N, 97.7452°W
Report Text: KGOP 252215Z AUTO 34013KT 10SM CLR 19/M03 A3013 RMK AO2
Loading
Personal Weather Stations






























Interactive Weather Map New forecast layout! Learn more

10-Day Weather Forecast

Advertisements
Track Severe Weather on mobile